Time,TemperatureF,DewpointF,PressureIn,WindDirection,WindDirectionDegrees,WindSpeedMPH,WindSpeedGustMPH,Humidity,HourlyPrecipIn,Conditions,Clouds,dailyrainin,SoftwareType,DateUTC
2013-07-20 00:04:00,78.8,62.2,29.23,North,-999,-999.0,-999.0,57,-99.99,,,-99.99,WSDL version 426,2013-07-20 05:04:00,
2013-07-20 00:09:00,78.3,61.7,29.23,North,-999,-999.0,-999.0,56,-99.99,,,-99.99,WSDL version 426,2013-07-20 05:09:00,
2013-07-20 00:14:00,78.1,62.2,29.23,North,-999,-999.0,-999.0,60,-99.99,,,-99.99,WSDL version 426,2013-07-20 05:14:00,
2013-07-20 00:19:00,78.5,63.4,29.21,North,-999,-999.0,-999.0,59,-99.99,,,-99.99,WSDL version 426,2013-07-20 05:19:00,
2013-07-20 00:24:00,78.4,62.7,29.21,North,-999,-999.0,-999.0,58,-99.99,,,-99.99,WSDL version 426,2013-07-20 05:24:00,
2013-07-20 00:29:00,77.7,62.4,29.21,North,-999,-999.0,-999.0,60,-99.99,,,-99.99,WSDL version 426,2013-07-20 05:29:00,
2013-07-20 00:34:00,77.3,62.3,29.23,North,-999,-999.0,-999.0,60,-99.99,,,-99.99,WSDL version 426,2013-07-20 05:34:00,
2013-07-20 00:39:00,77.2,63.2,29.23,North,-999,-999.0,-999.0,62,-99.99,,,-99.99,WSDL version 426,2013-07-20 05:39:00,
2013-07-20 00:44:00,77.4,63.3,29.23,North,-999,-999.0,-999.0,61,-99.99,,,-99.99,WSDL version 426,2013-07-20 05:44:00,
2013-07-20 00:49:00,77.3,62.7,29.23,North,-999,-999.0,-999.0,61,-99.99,,,-99.99,WSDL version 426,2013-07-20 05:49:00,
2013-07-20 00:54:00,76.9,62.6,29.23,North,-999,-999.0,-999.0,62,-99.99,,,-99.99,WSDL version 426,2013-07-20 05:54:00,
2013-07-20 00:59:00,76.7,62.7,29.23,North,-999,-999.0,-999.0,62,-99.99,,,-99.99,WSDL version 426,2013-07-20 05:59:00,
2013-07-20 01:04:00,77.1,63.3,29.23,North,-999,-999.0,-999.0,62,-99.99,,,-99.99,WSDL version 426,2013-07-20 06:04:00,
2013-07-20 01:09:00,77.1,62.8,29.23,North,-999,-999.0,-999.0,61,-99.99,,,-99.99,WSDL version 426,2013-07-20 06:09:00,
2013-07-20 01:14:00,76.8,62.2,29.23,North,-999,-999.0,-999.0,61,-99.99,,,-99.99,WSDL version 426,2013-07-20 06:14:00,
2013-07-20 01:19:00,76.6,62.2,29.23,North,-999,-999.0,-999.0,62,-99.99,,,-99.99,WSDL version 426,2013-07-20 06:19:00,
2013-07-20 01:24:00,76.3,62.2,29.23,North,-999,-999.0,-999.0,62,-99.99,,,-99.99,WSDL version 426,2013-07-20 06:24:00,
2013-07-20 01:29:00,76.4,62.4,29.23,North,-999,-999.0,-999.0,62,-99.99,,,-99.99,WSDL version 426,2013-07-20 06:29:00,
2013-07-20 01:34:00,76.3,61.9,29.23,North,-999,-999.0,-999.0,61,-99.99,,,-99.99,WSDL version 426,2013-07-20 06:34:00,
2013-07-20 01:39:00,-999.0,-99.9,29.23,North,-999,-999.0,-999.0,-999,-99.99,,,-99.99,WSDL version 426,2013-07-20 06:39:00,
2013-07-20 01:44:00,75.9,61.7,29.23,North,-999,-999.0,-999.0,62,-99.99,,,-99.99,WSDL version 426,2013-07-20 06:44:00,
2013-07-20 01:49:00,-999.0,-99.9,29.23,North,-999,-999.0,-999.0,-999,-99.99,,,-99.99,WSDL version 426,2013-07-20 06:49:00,
2013-07-20 01:54:00,75.7,62.3,29.23,North,-999,-999.0,-999.0,63,-99.99,,,-99.99,WSDL version 426,2013-07-20 06:54:00,
2013-07-20 01:59:00,75.7,62.2,29.23,North,-999,-999.0,-999.0,63,-99.99,,,-99.99,WSDL version 426,2013-07-20 06:59:00,
2013-07-20 02:04:00,75.6,62.1,29.26,North,-999,-999.0,-999.0,63,-99.99,,,-99.99,WSDL version 426,2013-07-20 07:04:00,
2013-07-20 02:09:00,75.6,62.1,29.26,North,-999,-999.0,-999.0,63,-99.99,,,-99.99,WSDL version 426,2013-07-20 07:09:00,
2013-07-20 02:14:00,75.5,62.2,29.26,North,-999,-999.0,-999.0,63,-99.99,,,-99.99,WSDL version 426,2013-07-20 07:14:00,
2013-07-20 02:19:00,75.4,62.0,29.23,North,-999,-999.0,-999.0,63,-99.99,,,-99.99,WSDL version 426,2013-07-20 07:19:00,
2013-07-20 02:24:00,75.3,61.9,29.23,North,-999,-999.0,-999.0,63,-99.99,,,-99.99,WSDL version 426,2013-07-20 07:24:00,
2013-07-20 02:29:00,-999.0,-99.9,29.23,North,-999,-999.0,-999.0,-999,-99.99,,,-99.99,WSDL version 426,2013-07-20 07:29:00,
2013-07-20 02:34:00,75.3,62.3,29.23,North,-999,-999.0,-999.0,64,-99.99,,,-99.99,WSDL version 426,2013-07-20 07:34:00,
2013-07-20 02:39:00,75.3,62.2,29.23,North,-999,-999.0,-999.0,63,-99.99,,,-99.99,WSDL version 426,2013-07-20 07:39:00,
2013-07-20 02:44:00,75.1,62.1,29.23,North,-999,-999.0,-999.0,64,-99.99,,,-99.99,WSDL version 426,2013-07-20 07:44:00,
2013-07-20 02:49:00,74.8,61.9,29.23,North,-999,-999.0,-999.0,64,-99.99,,,-99.99,WSDL version 426,2013-07-20 07:49:00,
2013-07-20 02:54:00,74.7,62.0,29.23,North,-999,-999.0,-999.0,65,-99.99,,,-99.99,WSDL version 426,2013-07-20 07:54:00,
2013-07-20 02:59:00,74.6,62.4,29.23,North,-999,-999.0,-999.0,66,-99.99,,,-99.99,WSDL version 426,2013-07-20 07:59:00,
2013-07-20 03:04:00,74.7,62.3,29.23,North,-999,-999.0,-999.0,65,-99.99,,,-99.99,WSDL version 426,2013-07-20 08:04:00,
2013-07-20 03:09:00,74.5,62.0,29.23,North,-999,-999.0,-999.0,65,-99.99,,,-99.99,WSDL version 426,2013-07-20 08:09:00,
2013-07-20 03:14:00,74.3,62.0,29.23,North,-999,-999.0,-999.0,66,-99.99,,,-99.99,WSDL version 426,2013-07-20 08:14:00,
2013-07-20 03:19:00,74.1,61.9,29.23,North,-999,-999.0,-999.0,65,-99.99,,,-99.99,WSDL version 426,2013-07-20 08:19:00,
2013-07-20 03:24:00,74.0,61.8,29.23,North,-999,-999.0,-999.0,66,-99.99,,,-99.99,WSDL version 426,2013-07-20 08:24:00,
2013-07-20 03:29:00,73.9,61.9,29.23,North,-999,-999.0,-999.0,66,-99.99,,,-99.99,WSDL version 426,2013-07-20 08:29:00,
2013-07-20 03:34:00,74.1,62.3,29.23,North,-999,-999.0,-999.0,66,-99.99,,,-99.99,WSDL version 426,2013-07-20 08:34:00,
2013-07-20 03:39:00,73.9,61.9,29.23,North,-999,-999.0,-999.0,66,-99.99,,,-99.99,WSDL version 426,2013-07-20 08:39:00,
2013-07-20 03:44:00,73.8,61.7,29.23,North,-999,-999.0,-999.0,66,-99.99,,,-99.99,WSDL version 426,2013-07-20 08:44:00,
2013-07-20 03:49:00,73.6,61.5,29.23,North,-999,-999.0,-999.0,66,-99.99,,,-99.99,WSDL version 426,2013-07-20 08:49:00,
2013-07-20 03:54:00,73.5,61.5,29.23,North,-999,-999.0,-999.0,67,-99.99,,,-99.99,WSDL version 426,2013-07-20 08:54:00,
2013-07-20 03:59:00,73.4,61.8,29.23,North,-999,-999.0,-999.0,67,-99.99,,,-99.99,WSDL version 426,2013-07-20 08:59:00,
2013-07-20 04:04:00,73.4,62.0,29.23,North,-999,-999.0,-999.0,68,-99.99,,,-99.99,WSDL version 426,2013-07-20 09:04:00,
2013-07-20 04:09:00,73.6,62.4,29.23,North,-999,-999.0,-999.0,68,-99.99,,,-99.99,WSDL version 426,2013-07-20 09:09:00,
2013-07-20 04:14:00,73.4,62.0,29.23,North,-999,-999.0,-999.0,68,-99.99,,,-99.99,WSDL version 426,2013-07-20 09:14:00,
2013-07-20 04:19:00,73.1,62.2,29.23,North,-999,-999.0,-999.0,69,-99.99,,,-99.99,WSDL version 426,2013-07-20 09:19:00,
2013-07-20 04:24:00,73.0,61.9,29.23,North,-999,-999.0,-999.0,69,-99.99,,,-99.99,WSDL version 426,2013-07-20 09:24:00,
2013-07-20 04:29:00,72.9,62.1,29.23,North,-999,-999.0,-999.0,69,-99.99,,,-99.99,WSDL version 426,2013-07-20 09:29:00,
2013-07-20 04:34:00,72.9,62.1,29.23,North,-999,-999.0,-999.0,69,-99.99,,,-99.99,WSDL version 426,2013-07-20 09:34:00,
2013-07-20 04:39:00,72.7,61.9,29.23,North,-999,-999.0,-999.0,69,-99.99,,,-99.99,WSDL version 426,2013-07-20 09:39:00,
2013-07-20 04:44:00,-999.0,-99.9,29.23,North,-999,-999.0,-999.0,-999,-99.99,,,-99.99,WSDL version 426,2013-07-20 09:44:00,
2013-07-20 04:49:00,73.6,62.9,29.23,North,-999,-999.0,-999.0,69,-99.99,,,-99.99,WSDL version 426,2013-07-20 09:49:00,
2013-07-20 04:54:00,73.3,62.3,29.23,North,-999,-999.0,-999.0,69,-99.99,,,-99.99,WSDL version 426,2013-07-20 09:54:00,
2013-07-20 04:59:00,-999.0,-99.9,29.23,North,-999,-999.0,-999.0,-999,-99.99,,,-99.99,WSDL version 426,2013-07-20 09:59:00,
2013-07-20 05:04:00,73.0,62.1,29.21,North,-999,-999.0,-999.0,69,-99.99,,,-99.99,WSDL version 426,2013-07-20 10:04:00,
2013-07-20 05:09:00,-999.0,-99.9,29.21,North,-999,-999.0,-999.0,-999,-99.99,,,-99.99,WSDL version 426,2013-07-20 10:09:00,
2013-07-20 05:14:00,72.9,62.1,29.21,North,-999,-999.0,-999.0,69,-99.99,,,-99.99,WSDL version 426,2013-07-20 10:14:00,
2013-07-20 05:19:00,72.9,62.1,29.21,North,-999,-999.0,-999.0,69,-99.99,,,-99.99,WSDL version 426,2013-07-20 10:19:00,
2013-07-20 05:24:00,-999.0,-99.9,29.21,North,-999,-999.0,-999.0,-999,-99.99,,,-99.99,WSDL version 426,2013-07-20 10:24:00,
2013-07-20 05:29:00,-999.0,-99.9,29.21,North,-999,-999.0,-999.0,-999,-99.99,,,-99.99,WSDL version 426,2013-07-20 10:29:00,
2013-07-20 05:34:00,-999.0,-99.9,29.21,North,-999,-999.0,-999.0,-999,-99.99,,,-99.99,WSDL version 426,2013-07-20 10:34:00,
2013-07-20 05:39:00,-999.0,-99.9,29.21,North,-999,-999.0,-999.0,-999,-99.99,,,-99.99,WSDL version 426,2013-07-20 10:39:00,
2013-07-20 05:44:00,-999.0,-99.9,29.21,North,-999,-999.0,-999.0,-999,-99.99,,,-99.99,WSDL version 426,2013-07-20 10:44:00,
2013-07-20 05:49:00,-999.0,-99.9,29.21,North,-999,-999.0,-999.0,-999,-99.99,,,-99.99,WSDL version 426,2013-07-20 10:49:00,
2013-07-20 05:54:00,-999.0,-99.9,29.21,North,-999,-999.0,-999.0,-999,-99.99,,,-99.99,WSDL version 426,2013-07-20 10:54:00,
2013-07-20 05:59:00,-999.0,-99.9,29.21,North,-999,-999.0,-999.0,-999,-99.99,,,-99.99,WSDL version 426,2013-07-20 10:59:00,
2013-07-20 06:04:00,-999.0,-99.9,29.23,North,-999,-999.0,-999.0,-999,-99.99,,,-99.99,WSDL version 426,2013-07-20 11:04:00,
2013-07-20 06:09:00,-999.0,-99.9,29.23,North,-999,-999.0,-999.0,-999,-99.99,,,-99.99,WSDL version 426,2013-07-20 11:09:00,
2013-07-20 06:14:00,-999.0,-99.9,29.23,North,-999,-999.0,-999.0,-999,-99.99,,,-99.99,WSDL version 426,2013-07-20 11:14:00,
2013-07-20 06:19:00,-999.0,-99.9,29.23,North,-999,-999.0,-999.0,-999,-99.99,,,-99.99,WSDL version 426,2013-07-20 11:19:00,
2013-07-20 06:24:00,-999.0,-99.9,29.23,North,-999,-999.0,-999.0,-999,-99.99,,,-99.99,WSDL version 426,2013-07-20 11:24:00,
2013-07-20 06:29:00,-999.0,-99.9,29.23,North,-999,-999.0,-999.0,-999,-99.99,,,-99.99,WSDL version 426,2013-07-20 11:29:00,
2013-07-20 06:34:00,-999.0,-99.9,29.23,North,-999,-999.0,-999.0,-999,-99.99,,,-99.99,WSDL version 426,2013-07-20 11:34:00,
2013-07-20 06:39:00,-999.0,-99.9,29.23,North,-999,-999.0,-999.0,-999,-99.99,,,-99.99,WSDL version 426,2013-07-20 11:39:00,
2013-07-20 06:44:00,-999.0,-99.9,29.23,North,-999,-999.0,-999.0,-999,-99.99,,,-99.99,WSDL version 426,2013-07-20 11:44:00,
2013-07-20 06:49:00,-999.0,-99.9,29.23,North,-999,-999.0,-999.0,-999,-99.99,,,-99.99,WSDL version 426,2013-07-20 11:49:00,
2013-07-20 06:54:00,-999.0,-99.9,29.23,North,-999,-999.0,-999.0,-999,-99.99,,,-99.99,WSDL version 426,2013-07-20 11:54:00,
2013-07-20 06:59:00,-999.0,-99.9,29.23,North,-999,-999.0,-999.0,-999,-99.99,,,-99.99,WSDL version 426,2013-07-20 11:59:00,
2013-07-20 07:04:00,-999.0,-99.9,29.23,North,-999,-999.0,-999.0,-999,-99.99,,,-99.99,WSDL version 426,2013-07-20 12:04:00,
2013-07-20 07:09:00,-999.0,-99.9,29.23,North,-999,-999.0,-999.0,-999,-99.99,,,-99.99,WSDL version 426,2013-07-20 12:09:00,
2013-07-20 07:14:00,-999.0,-99.9,29.23,North,-999,-999.0,-999.0,-999,-99.99,,,-99.99,WSDL version 426,2013-07-20 12:14:00,
2013-07-20 07:19:00,-999.0,-99.9,29.23,North,-999,-999.0,-999.0,-999,-99.99,,,-99.99,WSDL version 426,2013-07-20 12:19:00,
2013-07-20 07:24:00,-999.0,-99.9,29.23,North,-999,-999.0,-999.0,-999,-99.99,,,-99.99,WSDL version 426,2013-07-20 12:24:00,
2013-07-20 07:29:00,-999.0,-99.9,29.23,North,-999,-999.0,-999.0,-999,-99.99,,,-99.99,WSDL version 426,2013-07-20 12:29:00,
2013-07-20 07:34:00,73.4,66.1,29.23,North,-999,-999.0,-999.0,78,-99.99,,,-99.99,WSDL version 426,2013-07-20 12:34:00,
2013-07-20 07:39:00,-999.0,-99.9,29.23,North,-999,-999.0,-999.0,-999,-99.99,,,-99.99,WSDL version 426,2013-07-20 12:39:00,
2013-07-20 07:44:00,-999.0,-99.9,29.23,North,-999,-999.0,-999.0,-999,-99.99,,,-99.99,WSDL version 426,2013-07-20 12:44:00,
2013-07-20 07:49:00,73.9,66.2,29.23,North,-999,-999.0,-999.0,76,-99.99,,,-99.99,WSDL version 426,2013-07-20 12:49:00,
2013-07-20 07:54:00,-999.0,-99.9,29.23,North,-999,-999.0,-999.0,-999,-99.99,,,-99.99,WSDL version 426,2013-07-20 12:54:00,
2013-07-20 07:59:00,-999.0,-99.9,29.23,North,-999,-999.0,-999.0,-999,-99.99,,,-99.99,WSDL version 426,2013-07-20 12:59:00,
2013-07-20 08:04:00,-999.0,-99.9,29.23,North,-999,-999.0,-999.0,-999,-99.99,,,-99.99,WSDL version 426,2013-07-20 13:04:00,
2013-07-20 08:09:00,74.8,66.4,29.23,North,-999,-999.0,-999.0,75,-99.99,,,-99.99,WSDL version 426,2013-07-20 13:09:00,
2013-07-20 08:14:00,75.3,66.4,29.23,North,-999,-999.0,-999.0,74,-99.99,,,-99.99,WSDL version 426,2013-07-20 13:14:00,
2013-07-20 08:19:00,-999.0,-99.9,29.23,North,-999,-999.0,-999.0,-999,-99.99,,,-99.99,WSDL version 426,2013-07-20 13:19:00,
2013-07-20 08:24:00,-999.0,-99.9,29.23,North,-999,-999.0,-999.0,-999,-99.99,,,-99.99,WSDL version 426,2013-07-20 13:24:00,
2013-07-20 08:29:00,-999.0,-99.9,29.23,North,-999,-999.0,-999.0,-999,-99.99,,,-99.99,WSDL version 426,2013-07-20 13:29:00,
2013-07-20 08:34:00,-999.0,-99.9,29.23,North,-999,-999.0,-999.0,-999,-99.99,,,-99.99,WSDL version 426,2013-07-20 13:34:00,
2013-07-20 08:39:00,-999.0,-99.9,29.23,North,-999,-999.0,-999.0,-999,-99.99,,,-99.99,WSDL version 426,2013-07-20 13:39:00,
2013-07-20 08:44:00,-999.0,-99.9,29.23,North,-999,-999.0,-999.0,-999,-99.99,,,-99.99,WSDL version 426,2013-07-20 13:44:00,
2013-07-20 08:49:00,-999.0,-99.9,29.23,North,-999,-999.0,-999.0,-999,-99.99,,,-99.99,WSDL version 426,2013-07-20 13:49:00,
2013-07-20 08:54:00,-999.0,-99.9,29.23,North,-999,-999.0,-999.0,-999,-99.99,,,-99.99,WSDL version 426,2013-07-20 13:54:00,
2013-07-20 08:59:00,-999.0,-99.9,29.23,North,-999,-999.0,-999.0,-999,-99.99,,,-99.99,WSDL version 426,2013-07-20 13:59:00,
2013-07-20 09:04:00,-999.0,-99.9,29.23,North,-999,-999.0,-999.0,-999,-99.99,,,-99.99,WSDL version 426,2013-07-20 14:04:00,
2013-07-20 09:09:00,-999.0,-99.9,29.23,North,-999,-999.0,-999.0,-999,-99.99,,,-99.99,WSDL version 426,2013-07-20 14:09:00,
2013-07-20 09:14:00,-999.0,-99.9,29.23,North,-999,-999.0,-999.0,-999,-99.99,,,-99.99,WSDL version 426,2013-07-20 14:14:00,
2013-07-20 09:19:00,-999.0,-99.9,29.23,North,-999,-999.0,-999.0,-999,-99.99,,,-99.99,WSDL version 426,2013-07-20 14:19:00,
2013-07-20 09:24:00,-999.0,-99.9,29.23,North,-999,-999.0,-999.0,-999,-99.99,,,-99.99,WSDL version 426,2013-07-20 14:24:00,
2013-07-20 09:29:00,-999.0,-99.9,29.23,North,-999,-999.0,-999.0,-999,-99.99,,,-99.99,WSDL version 426,2013-07-20 14:29:00,
2013-07-20 09:34:00,82.6,64.3,29.23,North,-999,-999.0,-999.0,54,-99.99,,,-99.99,WSDL version 426,2013-07-20 14:34:00,
2013-07-20 09:39:00,-999.0,-99.9,29.23,North,-999,-999.0,-999.0,-999,-99.99,,,-99.99,WSDL version 426,2013-07-20 14:39:00,
2013-07-20 09:44:00,-999.0,-99.9,29.23,North,-999,-999.0,-999.0,-999,-99.99,,,-99.99,WSDL version 426,2013-07-20 14:44:00,
2013-07-20 09:49:00,83.8,62.9,29.23,North,-999,-999.0,-999.0,49,-99.99,,,-99.99,WSDL version 426,2013-07-20 14:49:00,
2013-07-20 09:54:00,-999.0,-99.9,29.23,North,-999,-999.0,-999.0,-999,-99.99,,,-99.99,WSDL version 426,2013-07-20 14:54:00,
2013-07-20 09:59:00,-999.0,-99.9,29.23,North,-999,-999.0,-999.0,-999,-99.99,,,-99.99,WSDL version 426,2013-07-20 14:59:00,
2013-07-20 10:04:00,85.1,63.2,29.23,North,-999,-999.0,-999.0,48,-99.99,,,-99.99,WSDL version 426,2013-07-20 15:04:00,
2013-07-20 10:09:00,-999.0,-99.9,29.23,North,-999,-999.0,-999.0,-999,-99.99,,,-99.99,WSDL version 426,2013-07-20 15:09:00,
2013-07-20 10:14:00,86.1,62.6,29.23,North,-999,-999.0,-999.0,45,-99.99,,,-99.99,WSDL version 426,2013-07-20 15:14:00,
2013-07-20 10:19:00,-999.0,-99.9,29.23,North,-999,-999.0,-999.0,-999,-99.99,,,-99.99,WSDL version 426,2013-07-20 15:19:00,
2013-07-20 10:24:00,87.1,63.5,29.23,North,-999,-999.0,-999.0,45,-99.99,,,-99.99,WSDL version 426,2013-07-20 15:24:00,
2013-07-20 10:29:00,-999.0,-99.9,29.23,North,-999,-999.0,-999.0,-999,-99.99,,,-99.99,WSDL version 426,2013-07-20 15:29:00,
2013-07-20 10:34:00,-999.0,-99.9,29.23,North,-999,-999.0,-999.0,-999,-99.99,,,-99.99,WSDL version 426,2013-07-20 15:34:00,
2013-07-20 10:39:00,-999.0,-99.9,29.23,North,-999,-999.0,-999.0,-999,-99.99,,,-99.99,WSDL version 426,2013-07-20 15:39:00,
2013-07-20 10:44:00,88.1,62.5,29.23,North,-999,-999.0,-999.0,43,-99.99,,,-99.99,WSDL version 426,2013-07-20 15:44:00,
2013-07-20 10:49:00,-999.0,-99.9,29.23,North,-999,-999.0,-999.0,-999,-99.99,,,-99.99,WSDL version 426,2013-07-20 15:49:00,
2013-07-20 10:54:00,-999.0,-99.9,29.23,North,-999,-999.0,-999.0,-999,-99.99,,,-99.99,WSDL version 426,2013-07-20 15:54:00,
2013-07-20 10:59:00,-999.0,-99.9,29.23,North,-999,-999.0,-999.0,-999,-99.99,,,-99.99,WSDL version 426,2013-07-20 15:59:00,
2013-07-20 11:04:00,-999.0,-99.9,29.23,North,-999,-999.0,-999.0,-999,-99.99,,,-99.99,WSDL version 426,2013-07-20 16:04:00,
2013-07-20 11:09:00,-999.0,-99.9,29.23,North,-999,-999.0,-999.0,-999,-99.99,,,-99.99,WSDL version 426,2013-07-20 16:09:00,
2013-07-20 11:14:00,-999.0,-99.9,29.23,North,-999,-999.0,-999.0,-999,-99.99,,,-99.99,WSDL version 426,2013-07-20 16:14:00,
2013-07-20 11:19:00,-999.0,-99.9,29.23,North,-999,-999.0,-999.0,-999,-99.99,,,-99.99,WSDL version 426,2013-07-20 16:19:00,
2013-07-20 11:24:00,-999.0,-99.9,29.23,North,-999,-999.0,-999.0,-999,-99.99,,,-99.99,WSDL version 426,2013-07-20 16:24:00,
2013-07-20 11:29:00,91.8,62.1,29.23,North,-999,-999.0,-999.0,37,-99.99,,,-99.99,WSDL version 426,2013-07-20 16:29:00,
2013-07-20 11:34:00,92.3,61.9,29.23,North,-999,-999.0,-999.0,36,-99.99,,,-99.99,WSDL version 426,2013-07-20 16:34:00,
2013-07-20 11:39:00,92.2,61.0,29.23,North,-999,-999.0,-999.0,36,-99.99,,,-99.99,WSDL version 426,2013-07-20 16:39:00,
2013-07-20 11:44:00,92.3,61.5,29.23,North,-999,-999.0,-999.0,36,-99.99,,,-99.99,WSDL version 426,2013-07-20 16:44:00,
2013-07-20 11:49:00,92.5,61.2,29.26,North,-999,-999.0,-999.0,36,-99.99,,,-99.99,WSDL version 426,2013-07-20 16:49:00,
2013-07-20 11:54:00,-999.0,-99.9,29.26,North,-999,-999.0,-999.0,-999,-99.99,,,-99.99,WSDL version 426,2013-07-20 16:54:00,
2013-07-20 11:59:00,93.4,60.8,29.26,North,-999,-999.0,-999.0,34,-99.99,,,-99.99,WSDL version 426,2013-07-20 16:59:00,
2013-07-20 12:04:00,93.9,61.3,29.23,North,-999,-999.0,-999.0,33,-99.99,,,-99.99,WSDL version 426,2013-07-20 17:04:00,
2013-07-20 12:09:00,94.3,60.8,29.23,North,-999,-999.0,-999.0,33,-99.99,,,-99.99,WSDL version 426,2013-07-20 17:09:00,
2013-07-20 12:14:00,94.4,60.4,29.23,North,-999,-999.0,-999.0,32,-99.99,,,-99.99,WSDL version 426,2013-07-20 17:14:00,
2013-07-20 12:19:00,94.5,58.9,29.23,North,-999,-999.0,-999.0,30,-99.99,,,-99.99,WSDL version 426,2013-07-20 17:19:00,
2013-07-20 12:24:00,93.9,58.4,29.23,North,-999,-999.0,-999.0,31,-99.99,,,-99.99,WSDL version 426,2013-07-20 17:24:00,
2013-07-20 12:29:00,-999.0,-99.9,29.23,North,-999,-999.0,-999.0,-999,-99.99,,,-99.99,WSDL version 426,2013-07-20 17:29:00,
2013-07-20 12:34:00,95.3,60.6,29.23,North,-999,-999.0,-999.0,31,-99.99,,,-99.99,WSDL version 426,2013-07-20 17:34:00,
2013-07-20 12:39:00,95.9,59.2,29.23,North,-999,-999.0,-999.0,29,-99.99,,,-99.99,WSDL version 426,2013-07-20 17:39:00,
2013-07-20 12:44:00,-999.0,-99.9,29.23,North,-999,-999.0,-999.0,-999,-99.99,,,-99.99,WSDL version 426,2013-07-20 17:44:00,
2013-07-20 12:49:00,96.3,60.7,29.23,North,-999,-999.0,-999.0,31,-99.99,,,-99.99,WSDL version 426,2013-07-20 17:49:00,
2013-07-20 12:54:00,96.9,60.3,29.23,North,-999,-999.0,-999.0,30,-99.99,,,-99.99,WSDL version 426,2013-07-20 17:54:00,
2013-07-20 12:59:00,97.5,60.9,29.23,North,-999,-999.0,-999.0,30,-99.99,,,-99.99,WSDL version 426,2013-07-20 17:59:00,
2013-07-20 13:04:00,96.9,59.2,29.21,North,-999,-999.0,-999.0,29,-99.99,,,-99.99,WSDL version 426,2013-07-20 18:04:00,
2013-07-20 13:09:00,95.7,58.2,29.21,North,-999,-999.0,-999.0,29,-99.99,,,-99.99,WSDL version 426,2013-07-20 18:09:00,
2013-07-20 13:14:00,96.2,59.3,29.21,North,-999,-999.0,-999.0,30,-99.99,,,-99.99,WSDL version 426,2013-07-20 18:14:00,
2013-07-20 13:19:00,-999.0,-99.9,29.21,North,-999,-999.0,-999.0,-999,-99.99,,,-99.99,WSDL version 426,2013-07-20 18:19:00,
2013-07-20 13:24:00,-999.0,-99.9,29.21,North,-999,-999.0,-999.0,-999,-99.99,,,-99.99,WSDL version 426,2013-07-20 18:24:00,
2013-07-20 13:29:00,98.4,60.7,29.21,North,-999,-999.0,-999.0,29,-99.99,,,-99.99,WSDL version 426,2013-07-20 18:29:00,
2013-07-20 13:35:00,98.4,59.7,29.21,North,-999,-999.0,-999.0,28,-99.99,,,-99.99,WSDL version 426,2013-07-20 18:35:00,
2013-07-20 13:40:00,99.0,59.2,29.21,North,-999,-999.0,-999.0,27,-99.99,,,-99.99,WSDL version 426,2013-07-20 18:40:00,
2013-07-20 13:45:00,99.7,59.8,29.21,North,-999,-999.0,-999.0,27,-99.99,,,-99.99,WSDL version 426,2013-07-20 18:45:00,
2013-07-20 13:52:00,99.1,58.6,29.21,North,-999,-999.0,-999.0,26,-99.99,,,-99.99,WSDL version 426,2013-07-20 18:52:00,
2013-07-20 13:58:00,98.1,58.1,29.21,North,-999,-999.0,-999.0,27,-99.99,,,-99.99,WSDL version 426,2013-07-20 18:58:00,
2013-07-20 14:04:00,98.4,57.6,29.21,North,-999,-999.0,-999.0,26,-99.99,,,-99.99,WSDL version 426,2013-07-20 19:04:00,
2013-07-20 14:09:00,99.4,58.9,29.21,North,-999,-999.0,-999.0,27,-99.99,,,-99.99,WSDL version 426,2013-07-20 19:09:00,
2013-07-20 14:14:00,99.5,58.6,29.21,North,-999,-999.0,-999.0,26,-99.99,,,-99.99,WSDL version 426,2013-07-20 19:14:00,
2013-07-20 14:19:00,99.5,58.6,29.18,North,-999,-999.0,-999.0,26,-99.99,,,-99.99,WSDL version 426,2013-07-20 19:19:00,
2013-07-20 14:24:00,99.3,57.7,29.18,North,-999,-999.0,-999.0,26,-99.99,,,-99.99,WSDL version 426,2013-07-20 19:24:00,
2013-07-20 14:29:00,97.8,57.1,29.18,North,-999,-999.0,-999.0,26,-99.99,,,-99.99,WSDL version 426,2013-07-20 19:29:00,
2013-07-20 14:34:00,99.1,58.2,29.18,North,-999,-999.0,-999.0,26,-99.99,,,-99.99,WSDL version 426,2013-07-20 19:34:00,
2013-07-20 14:39:00,98.7,57.9,29.18,North,-999,-999.0,-999.0,26,-99.99,,,-99.99,WSDL version 426,2013-07-20 19:39:00,
2013-07-20 14:44:00,99.2,58.5,29.18,North,-999,-999.0,-999.0,26,-99.99,,,-99.99,WSDL version 426,2013-07-20 19:44:00,
2013-07-20 14:49:00,99.1,58.2,29.18,North,-999,-999.0,-999.0,26,-99.99,,,-99.99,WSDL version 426,2013-07-20 19:49:00,
2013-07-20 14:56:00,98.6,57.1,29.18,North,-999,-999.0,-999.0,26,-99.99,,,-99.99,WSDL version 426,2013-07-20 19:56:00,
2013-07-20 15:01:00,97.9,57.3,29.18,North,-999,-999.0,-999.0,26,-99.99,,,-99.99,WSDL version 426,2013-07-20 20:01:00,
2013-07-20 15:06:00,97.6,57.0,29.18,North,-999,-999.0,-999.0,26,-99.99,,,-99.99,WSDL version 426,2013-07-20 20:06:00,
2013-07-20 15:11:00,97.6,57.0,29.18,North,-999,-999.0,-999.0,26,-99.99,,,-99.99,WSDL version 426,2013-07-20 20:11:00,
2013-07-20 15:16:00,98.5,57.7,29.18,North,-999,-999.0,-999.0,26,-99.99,,,-99.99,WSDL version 426,2013-07-20 20:16:00,
2013-07-20 15:21:00,99.4,58.3,29.18,North,-999,-999.0,-999.0,26,-99.99,,,-99.99,WSDL version 426,2013-07-20 20:21:00,
2013-07-20 15:27:00,99.7,57.6,29.18,North,-999,-999.0,-999.0,25,-99.99,,,-99.99,WSDL version 426,2013-07-20 20:27:00,
2013-07-20 15:33:00,99.7,58.5,29.18,North,-999,-999.0,-999.0,26,-99.99,,,-99.99,WSDL version 426,2013-07-20 20:33:00,
2013-07-20 15:38:00,100.5,57.7,29.15,North,-999,-999.0,-999.0,24,-99.99,,,-99.99,WSDL version 426,2013-07-20 20:38:00,
2013-07-20 15:43:00,100.4,57.1,29.15,North,-999,-999.0,-999.0,24,-99.99,,,-99.99,WSDL version 426,2013-07-20 20:43:00,
2013-07-20 15:48:00,99.6,55.9,29.15,North,-999,-999.0,-999.0,25,-99.99,,,-99.99,WSDL version 426,2013-07-20 20:48:00,
2013-07-20 15:53:00,100.2,56.5,29.15,North,-999,-999.0,-999.0,23,-99.99,,,-99.99,WSDL version 426,2013-07-20 20:53:00,
2013-07-20 15:58:00,100.9,55.1,29.15,North,-999,-999.0,-999.0,21,-99.99,,,-99.99,WSDL version 426,2013-07-20 20:58:00,
2013-07-20 16:04:00,99.6,52.2,29.12,North,-999,-999.0,-999.0,20,-99.99,,,-99.99,WSDL version 426,2013-07-20 21:04:00,
2013-07-20 16:09:00,100.2,53.2,29.12,North,-999,-999.0,-999.0,22,-99.99,,,-99.99,WSDL version 426,2013-07-20 21:09:00,
2013-07-20 16:14:00,101.1,55.2,29.12,North,-999,-999.0,-999.0,21,-99.99,,,-99.99,WSDL version 426,2013-07-20 21:14:00,
2013-07-20 16:19:00,101.9,53.0,29.12,North,-999,-999.0,-999.0,19,-99.99,,,-99.99,WSDL version 426,2013-07-20 21:19:00,
2013-07-20 16:24:00,103.0,52.8,29.12,North,-999,-999.0,-999.0,19,-99.99,,,-99.99,WSDL version 426,2013-07-20 21:24:00,
2013-07-20 16:30:00,103.3,51.3,29.12,North,-999,-999.0,-999.0,18,-99.99,,,-99.99,WSDL version 426,2013-07-20 21:30:00,
2013-07-20 16:35:00,103.1,51.1,29.12,North,-999,-999.0,-999.0,18,-99.99,,,-99.99,WSDL version 426,2013-07-20 21:35:00,
2013-07-20 16:40:00,102.9,51.5,29.12,North,-999,-999.0,-999.0,18,-99.99,,,-99.99,WSDL version 426,2013-07-20 21:40:00,
2013-07-20 16:45:00,102.4,52.3,29.12,North,-999,-999.0,-999.0,19,-99.99,,,-99.99,WSDL version 426,2013-07-20 21:45:00,
2013-07-20 16:51:00,101.7,52.7,29.12,North,-999,-999.0,-999.0,20,-99.99,,,-99.99,WSDL version 426,2013-07-20 21:51:00,
2013-07-20 16:56:00,102.2,53.6,29.12,North,-999,-999.0,-999.0,20,-99.99,,,-99.99,WSDL version 426,2013-07-20 21:56:00,
2013-07-20 17:01:00,101.8,53.5,29.12,North,-999,-999.0,-999.0,21,-99.99,,,-99.99,WSDL version 426,2013-07-20 22:01:00,
2013-07-20 17:06:00,102.3,54.1,29.15,North,-999,-999.0,-999.0,20,-99.99,,,-99.99,WSDL version 426,2013-07-20 22:06:00,
2013-07-20 17:11:00,102.3,53.4,29.15,North,-999,-999.0,-999.0,19,-99.99,,,-99.99,WSDL version 426,2013-07-20 22:11:00,
2013-07-20 17:16:00,103.3,53.0,29.15,North,-999,-999.0,-999.0,19,-99.99,,,-99.99,WSDL version 426,2013-07-20 22:16:00,
2013-07-20 17:23:00,103.6,53.0,29.12,North,-999,-999.0,-999.0,19,-99.99,,,-99.99,WSDL version 426,2013-07-20 22:23:00,
2013-07-20 17:28:00,103.5,53.0,29.12,North,-999,-999.0,-999.0,18,-99.99,,,-99.99,WSDL version 426,2013-07-20 22:28:00,
2013-07-20 17:33:00,102.7,52.3,29.12,North,-999,-999.0,-999.0,18,-99.99,,,-99.99,WSDL version 426,2013-07-20 22:33:00,
2013-07-20 17:38:00,102.6,51.3,29.12,North,-999,-999.0,-999.0,19,-99.99,,,-99.99,WSDL version 426,2013-07-20 22:38:00,
2013-07-20 17:43:00,102.6,51.6,29.12,North,-999,-999.0,-999.0,19,-99.99,,,-99.99,WSDL version 426,2013-07-20 22:43:00,
2013-07-20 17:48:00,102.9,51.0,29.12,North,-999,-999.0,-999.0,17,-99.99,,,-99.99,WSDL version 426,2013-07-20 22:48:00,
2013-07-20 17:53:00,102.1,50.4,29.12,North,-999,-999.0,-999.0,18,-99.99,,,-99.99,WSDL version 426,2013-07-20 22:53:00,
2013-07-20 17:58:00,102.8,50.9,29.12,North,-999,-999.0,-999.0,18,-99.99,,,-99.99,WSDL version 426,2013-07-20 22:58:00,
2013-07-20 18:04:00,102.9,50.7,29.12,North,-999,-999.0,-999.0,18,-99.99,,,-99.99,WSDL version 426,2013-07-20 23:04:00,
2013-07-20 18:09:00,103.2,51.5,29.12,North,-999,-999.0,-999.0,18,-99.99,,,-99.99,WSDL version 426,2013-07-20 23:09:00,
2013-07-20 18:16:00,103.7,51.1,29.12,North,-999,-999.0,-999.0,17,-99.99,,,-99.99,WSDL version 426,2013-07-20 23:16:00,
2013-07-20 18:21:00,103.4,50.2,29.12,North,-999,-999.0,-999.0,17,-99.99,,,-99.99,WSDL version 426,2013-07-20 23:21:00,
2013-07-20 18:26:00,102.8,49.7,29.12,North,-999,-999.0,-999.0,17,-99.99,,,-99.99,WSDL version 426,2013-07-20 23:26:00,
2013-07-20 18:31:00,102.0,49.0,29.12,North,-999,-999.0,-999.0,17,-99.99,,,-99.99,WSDL version 426,2013-07-20 23:31:00,
2013-07-20 18:36:00,101.4,48.8,29.12,North,-999,-999.0,-999.0,18,-99.99,,,-99.99,WSDL version 426,2013-07-20 23:36:00,
2013-07-20 18:42:00,100.8,49.3,29.12,North,-999,-999.0,-999.0,17,-99.99,,,-99.99,WSDL version 426,2013-07-20 23:42:00,
2013-07-20 18:47:00,100.6,48.9,29.12,North,-999,-999.0,-999.0,18,-99.99,,,-99.99,WSDL version 426,2013-07-20 23:47:00,
2013-07-20 18:52:00,99.9,48.8,29.12,North,-999,-999.0,-999.0,18,-99.99,,,-99.99,WSDL version 426,2013-07-20 23:52:00,
2013-07-20 18:57:00,100.3,49.2,29.12,North,-999,-999.0,-999.0,18,-99.99,,,-99.99,WSDL version 426,2013-07-20 23:57:00,
2013-07-20 19:02:00,100.0,49.8,29.12,North,-999,-999.0,-999.0,19,-99.99,,,-99.99,WSDL version 426,2013-07-21 00:02:00,
2013-07-20 19:08:00,99.9,50.3,29.12,North,-999,-999.0,-999.0,19,-99.99,,,-99.99,WSDL version 426,2013-07-21 00:08:00,
2013-07-20 19:13:00,100.4,49.5,29.12,North,-999,-999.0,-999.0,18,-99.99,,,-99.99,WSDL version 426,2013-07-21 00:13:00,
2013-07-20 19:18:00,100.7,50.0,29.12,North,-999,-999.0,-999.0,18,-99.99,,,-99.99,WSDL version 426,2013-07-21 00:18:00,
2013-07-20 19:23:00,100.0,49.4,29.12,North,-999,-999.0,-999.0,18,-99.99,,,-99.99,WSDL version 426,2013-07-21 00:23:00,
2013-07-20 19:28:00,99.4,49.0,29.12,North,-999,-999.0,-999.0,19,-99.99,,,-99.99,WSDL version 426,2013-07-21 00:28:00,
2013-07-20 19:33:00,99.3,49.8,29.12,North,-999,-999.0,-999.0,19,-99.99,,,-99.99,WSDL version 426,2013-07-21 00:33:00,
2013-07-20 19:38:00,99.1,50.1,29.12,North,-999,-999.0,-999.0,20,-99.99,,,-99.99,WSDL version 426,2013-07-21 00:38:00,
2013-07-20 19:43:00,98.9,50.9,29.12,North,-999,-999.0,-999.0,20,-99.99,,,-99.99,WSDL version 426,2013-07-21 00:43:00,
2013-07-20 19:48:00,98.1,50.9,29.12,North,-999,-999.0,-999.0,21,-99.99,,,-99.99,WSDL version 426,2013-07-21 00:48:00,
2013-07-20 19:54:00,98.2,51.6,29.12,North,-999,-999.0,-999.0,21,-99.99,,,-99.99,WSDL version 426,2013-07-21 00:54:00,
2013-07-20 19:59:00,98.1,52.6,29.12,North,-999,-999.0,-999.0,22,-99.99,,,-99.99,WSDL version 426,2013-07-21 00:59:00,
2013-07-20 20:04:00,97.6,52.4,29.12,North,-999,-999.0,-999.0,22,-99.99,,,-99.99,WSDL version 426,2013-07-21 01:04:00,
2013-07-20 20:10:00,96.3,53.3,29.12,North,-999,-999.0,-999.0,24,-99.99,,,-99.99,WSDL version 426,2013-07-21 01:10:00,
2013-07-20 20:15:00,95.2,54.0,29.12,North,-999,-999.0,-999.0,26,-99.99,,,-99.99,WSDL version 426,2013-07-21 01:15:00,
2013-07-20 20:20:00,94.4,55.1,29.12,North,-999,-999.0,-999.0,27,-99.99,,,-99.99,WSDL version 426,2013-07-21 01:20:00,
2013-07-20 20:25:00,93.8,54.8,29.12,North,-999,-999.0,-999.0,27,-99.99,,,-99.99,WSDL version 426,2013-07-21 01:25:00,
2013-07-20 20:31:00,92.7,54.7,29.12,North,-999,-999.0,-999.0,28,-99.99,,,-99.99,WSDL version 426,2013-07-21 01:31:00,
2013-07-20 20:36:00,91.9,54.2,29.15,North,-999,-999.0,-999.0,28,-99.99,,,-99.99,WSDL version 426,2013-07-21 01:36:00,
2013-07-20 20:41:00,91.3,54.6,29.15,North,-999,-999.0,-999.0,29,-99.99,,,-99.99,WSDL version 426,2013-07-21 01:41:00,
2013-07-20 20:46:00,90.9,55.2,29.15,North,-999,-999.0,-999.0,30,-99.99,,,-99.99,WSDL version 426,2013-07-21 01:46:00,
2013-07-20 20:51:00,90.9,55.2,29.12,North,-999,-999.0,-999.0,30,-99.99,,,-99.99,WSDL version 426,2013-07-21 01:51:00,
2013-07-20 20:57:00,90.3,55.6,29.12,North,-999,-999.0,-999.0,31,-99.99,,,-99.99,WSDL version 426,2013-07-21 01:57:00,
2013-07-20 21:02:00,90.1,56.3,29.12,North,-999,-999.0,-999.0,32,-99.99,,,-99.99,WSDL version 426,2013-07-21 02:02:00,
2013-07-20 21:08:00,89.4,56.7,29.12,North,-999,-999.0,-999.0,34,-99.99,,,-99.99,WSDL version 426,2013-07-21 02:08:00,
2013-07-20 21:13:00,89.0,56.9,29.12,North,-999,-999.0,-999.0,34,-99.99,,,-99.99,WSDL version 426,2013-07-21 02:13:00,
2013-07-20 21:18:00,88.4,57.0,29.12,North,-999,-999.0,-999.0,35,-99.99,,,-99.99,WSDL version 426,2013-07-21 02:18:00,
2013-07-20 21:23:00,87.9,57.8,29.15,North,-999,-999.0,-999.0,37,-99.99,,,-99.99,WSDL version 426,2013-07-21 02:23:00,
2013-07-20 21:28:00,87.7,58.8,29.15,North,-999,-999.0,-999.0,38,-99.99,,,-99.99,WSDL version 426,2013-07-21 02:28:00,
2013-07-20 21:34:00,87.6,59.5,29.15,North,-999,-999.0,-999.0,39,-99.99,,,-99.99,WSDL version 426,2013-07-21 02:34:00,
2013-07-20 21:39:00,87.4,59.1,29.15,North,-999,-999.0,-999.0,39,-99.99,,,-99.99,WSDL version 426,2013-07-21 02:39:00,
2013-07-20 21:44:00,86.9,59.0,29.15,North,-999,-999.0,-999.0,39,-99.99,,,-99.99,WSDL version 426,2013-07-21 02:44:00,
2013-07-20 21:52:00,86.4,59.2,29.15,North,-999,-999.0,-999.0,40,-99.99,,,-99.99,WSDL version 426,2013-07-21 02:52:00,
2013-07-20 21:57:00,86.2,59.5,29.15,North,-999,-999.0,-999.0,41,-99.99,,,-99.99,WSDL version 426,2013-07-21 02:57:00,
2013-07-20 22:02:00,86.2,59.7,29.15,North,-999,-999.0,-999.0,41,-99.99,,,-99.99,WSDL version 426,2013-07-21 03:02:00,
2013-07-20 22:09:00,86.0,59.6,29.15,North,-999,-999.0,-999.0,41,-99.99,,,-99.99,WSDL version 426,2013-07-21 03:09:00,
2013-07-20 22:14:00,85.2,59.0,29.15,North,-999,-999.0,-999.0,42,-99.99,,,-99.99,WSDL version 426,2013-07-21 03:14:00,
2013-07-20 22:19:00,84.7,59.5,29.15,North,-999,-999.0,-999.0,43,-99.99,,,-99.99,WSDL version 426,2013-07-21 03:19:00,
2013-07-20 22:24:00,84.9,60.5,29.15,North,-999,-999.0,-999.0,44,-99.99,,,-99.99,WSDL version 426,2013-07-21 03:24:00,
2013-07-20 22:29:00,85.0,60.6,29.15,North,-999,-999.0,-999.0,44,-99.99,,,-99.99,WSDL version 426,2013-07-21 03:29:00,
2013-07-20 22:34:00,85.0,60.5,29.15,North,-999,-999.0,-999.0,43,-99.99,,,-99.99,WSDL version 426,2013-07-21 03:34:00,
2013-07-20 22:39:00,84.3,59.6,29.15,North,-999,-999.0,-999.0,44,-99.99,,,-99.99,WSDL version 426,2013-07-21 03:39:00,
2013-07-20 22:44:00,83.6,59.6,29.15,North,-999,-999.0,-999.0,45,-99.99,,,-99.99,WSDL version 426,2013-07-21 03:44:00,
2013-07-20 22:49:00,83.4,60.2,29.15,North,-999,-999.0,-999.0,46,-99.99,,,-99.99,WSDL version 426,2013-07-21 03:49:00,
2013-07-20 22:54:00,83.4,60.7,29.15,North,-999,-999.0,-999.0,47,-99.99,,,-99.99,WSDL version 426,2013-07-21 03:54:00,
2013-07-20 23:00:00,82.9,60.3,29.15,North,-999,-999.0,-999.0,46,-99.99,,,-99.99,WSDL version 426,2013-07-21 04:00:00,
2013-07-20 23:01:00,82.8,60.2,29.15,North,-999,-999.0,-999.0,47,-99.99,,,-99.99,WSDL version 426,2013-07-21 04:01:00,
2013-07-20 23:02:00,82.7,60.0,29.15,North,-999,-999.0,-999.0,46,-99.99,,,-99.99,WSDL version 426,2013-07-21 04:02:00,
2013-07-20 23:03:00,82.6,60.0,29.15,North,-999,-999.0,-999.0,47,-99.99,,,-99.99,WSDL version 426,2013-07-21 04:03:00,
2013-07-20 23:06:00,82.4,60.0,29.15,North,-999,-999.0,-999.0,47,-99.99,,,-99.99,WSDL version 426,2013-07-21 04:06:00,
2013-07-20 23:07:00,82.3,60.2,29.15,North,-999,-999.0,-999.0,48,-99.99,,,-99.99,WSDL version 426,2013-07-21 04:07:00,
2013-07-20 23:12:00,82.4,61.2,29.15,North,-999,-999.0,-999.0,49,-99.99,,,-99.99,WSDL version 426,2013-07-21 04:12:00,
2013-07-20 23:17:00,82.5,61.5,29.15,North,-999,-999.0,-999.0,49,-99.99,,,-99.99,WSDL version 426,2013-07-21 04:17:00,
2013-07-20 23:22:00,82.1,61.1,29.15,North,-999,-999.0,-999.0,49,-99.99,,,-99.99,WSDL version 426,2013-07-21 04:22:00,
2013-07-20 23:27:00,81.7,61.1,29.15,North,-999,-999.0,-999.0,50,-99.99,,,-99.99,WSDL version 426,2013-07-21 04:27:00,
2013-07-20 23:32:00,81.7,62.3,29.15,North,-999,-999.0,-999.0,52,-99.99,,,-99.99,WSDL version 426,2013-07-21 04:32:00,
2013-07-20 23:37:00,81.8,62.6,29.15,North,-999,-999.0,-999.0,53,-99.99,,,-99.99,WSDL version 426,2013-07-21 04:37:00,
2013-07-20 23:42:00,81.7,62.5,29.15,North,-999,-999.0,-999.0,52,-99.99,,,-99.99,WSDL version 426,2013-07-21 04:42:00,
2013-07-20 23:47:00,81.4,61.8,29.15,North,-999,-999.0,-999.0,52,-99.99,,,-99.99,WSDL version 426,2013-07-21 04:47:00,
2013-07-20 23:52:00,81.4,62.8,29.15,North,-999,-999.0,-999.0,54,-99.99,,,-99.99,WSDL version 426,2013-07-21 04:52:00,
2013-07-20 23:57:00,82.1,63.6,29.15,North,-999,-999.0,-999.0,53,-99.99,,,-99.99,WSDL version 426,2013-07-21 04:57:00,